Terminal Aerodrome Forecast
Issued by NWS

Home | Current Version | Previous Version | Text Only | Print | Product List | Glossary Off
Versions: 1 2 3 4 5 6 7 8 9 10 11 12 13 14 15 16 17 18

000
FTUS43 KGRB 280200 AAA
TAFRHI
TAF AMD
KRHI 280246Z 2803/2824 VRB03KT P6SM VCSH SCT020 OVC035
      TEMPO 2803/2807 3SM -SHRA BR BKN020
     FM280800 26008G15KT P6SM SCT020 BKN035
     FM281500 25014G24KT P6SM VCSH SCT020 OVC035 PROB30 2818/2824
      6SM -SHRA BKN020=

USA.gov is the U.S. government's official web portal to all federal, state and local government web resources and services.